Airfield :
LOGIN :

Register | Disclaimer

   EN    FR    IT 

 










Legend :    VFR   Marginal VFR   IFR   Intensive IFR   Very Intensive IFR
Visi :
Ceiling :
>= 8 km
>= 3000ft
5 to 8 km
1000 to 3000 ft
1500m to 5 km
500 to 1000 ft
800 to 1500m
200 to 500 ft
< 800m
< 200 ft
Symbols :   Thunderstorms  Fog  Heavy snow  Heavy precipitations  Wind > 20 kt
SIGMETs :     Misc.  Thunderstorms  Icing  Turbulence  Mountain Waves  Volcanic Ashes







- Airport Elevation : 125 ft
- IATA code : MGL


EDLN - Mönchengladbach

CURRENT METAR :
  • 211150Z 29015KT 260V320 CAVOK 18/05 Q1020

EXPIRED METARs :
  • 211120Z 30018KT CAVOK 18/05 Q1019
  • 211050Z 29017KT 250V320 9999 SCT047 18/06 Q1019
  • 211020Z 30017KT 9999 SCT040 17/08 Q1019
  • 210950Z 29019G32KT 260V330 9999 SCT028 18/10 Q1018
  • 210920Z 29019KT 250V310 9999 SCT028 SCT059 17/10 Q1018

TAF TAF EDLN
Valid from the 21 at 12:00 until the 21 at 21:00 UTC


211100Z 2112/2121 30015G25KT 9999 SCT040
TEMPO 2112/2115 31020G30KT
BECMG 2115/2118 32010KT
No reported NOTAMs for that airfield.



MET'MAP, your aeronautical weather chart ! - Copyright ORBIFLY December 2007 - Disclaimer

ORBIFLY MET'MAP TEAM :

Programming & Development : Alexandra Zaïnal
Concept & Development : Baudouin d'Aumeries
Co-Development & Prog : Marc-Olivier Méhu
Technical & hardware support : Manuel Goepfert

Contact : metmap@orbifly.com




SOURCES & CREDITS :

   NOAA